createdAt,value
2019-03-30T00:04:47.770Z,20.93
2019-03-30T00:09:48.865Z,20.77
2019-03-30T00:14:50.025Z,20.27
2019-03-30T00:19:51.132Z,22.93
2019-03-30T00:24:52.235Z,22.87
2019-03-30T00:29:53.324Z,21.97
2019-03-30T00:34:54.427Z,22.00
2019-03-30T00:39:55.545Z,23.10
2019-03-30T00:45:10.779Z,23.20
2019-03-30T00:50:12.101Z,23.57
2019-03-30T00:55:13.204Z,23.20
2019-03-30T01:00:15.888Z,24.83
2019-03-30T01:05:17.019Z,26.00
2019-03-30T01:10:18.416Z,27.13
2019-03-30T01:15:19.516Z,28.17
2019-03-30T01:20:20.614Z,25.13
2019-03-30T01:25:21.807Z,23.17
2019-03-30T01:30:23.665Z,25.03
2019-03-30T01:35:25.177Z,22.67
2019-03-30T01:40:26.404Z,21.67
2019-03-30T01:45:27.499Z,25.33
2019-03-30T01:50:28.614Z,16.53
2019-03-30T01:55:29.703Z,18.43
2019-03-30T02:00:31.121Z,21.53
2019-03-30T02:05:32.209Z,18.70
2019-03-30T02:10:38.998Z,19.93
2019-03-30T02:15:40.288Z,23.57
2019-03-30T02:20:45.860Z,23.27
2019-03-30T02:25:46.956Z,19.60
2019-03-30T02:30:48.055Z,22.70
2019-03-30T02:35:49.151Z,21.20
2019-03-30T02:40:50.254Z,20.43
2019-03-30T02:45:51.357Z,20.07
2019-03-30T02:50:52.479Z,18.53
2019-03-30T02:55:53.577Z,19.47
2019-03-30T03:00:54.685Z,22.30
2019-03-30T03:05:55.783Z,19.80
2019-03-30T03:10:56.879Z,21.07
2019-03-30T03:15:59.053Z,18.63
2019-03-30T03:21:08.014Z,21.80
2019-03-30T03:26:03.353Z,21.67
2019-03-30T03:31:04.462Z,19.60
2019-03-30T03:36:05.731Z,25.27
2019-03-30T03:41:07.051Z,21.90
2019-03-30T03:46:08.136Z,22.00
2019-03-30T03:51:25.111Z,22.00
2019-03-30T03:56:13.551Z,19.87
2019-03-30T04:01:17.363Z,22.17
2019-03-30T04:06:20.866Z,23.40
2019-03-30T04:11:22.175Z,23.80
2019-03-30T04:16:23.265Z,24.93
2019-03-30T04:21:42.429Z,25.50
2019-03-30T04:26:27.358Z,24.57
2019-03-30T04:31:28.456Z,22.07
2019-03-30T04:36:29.637Z,23.23
2019-03-30T04:41:30.725Z,26.20
2019-03-30T04:46:31.827Z,26.17
2019-03-30T04:51:32.922Z,22.60
2019-03-30T04:56:34.015Z,25.00
2019-03-30T05:01:35.219Z,24.10
2019-03-30T05:06:36.302Z,21.83
2019-03-30T05:11:37.402Z,21.83
2019-03-30T05:16:38.503Z,25.03
2019-03-30T05:21:39.671Z,21.90
2019-03-30T05:26:40.799Z,22.50
2019-03-30T05:31:41.890Z,22.23
2019-03-30T05:36:43.000Z,23.97
2019-03-30T05:41:44.084Z,20.60
2019-03-30T05:46:45.180Z,23.93
2019-03-30T05:51:46.271Z,24.13
2019-03-30T05:56:47.370Z,22.50
2019-03-30T06:01:48.483Z,19.57
2019-03-30T06:06:49.591Z,27.43
2019-03-30T06:11:50.671Z,23.73
2019-03-30T06:16:51.758Z,23.90
2019-03-30T06:21:52.861Z,23.30
2019-03-30T06:26:53.959Z,21.70
2019-03-30T06:31:55.073Z,21.67
2019-03-30T06:36:56.166Z,23.90
2019-03-30T06:41:57.419Z,21.60
2019-03-30T06:46:58.502Z,31.10
2019-03-30T06:51:59.627Z,22.98
2019-03-30T06:57:00.722Z,21.60
2019-03-30T07:02:01.932Z,19.73
2019-03-30T07:07:03.027Z,22.83
2019-03-30T07:12:04.933Z,19.20
2019-03-30T07:17:09.832Z,20.53
2019-03-30T07:22:10.948Z,21.20
2019-03-30T07:27:12.028Z,21.60
2019-03-30T07:32:13.118Z,19.83
2019-03-30T07:37:14.243Z,21.00
2019-03-30T07:42:15.395Z,23.43
2019-03-30T07:47:16.491Z,22.20
2019-03-30T07:52:17.582Z,23.93
2019-03-30T07:57:18.716Z,23.43
2019-03-30T08:02:19.852Z,25.33
2019-03-30T08:07:20.954Z,27.70
2019-03-30T08:12:22.112Z,22.10
2019-03-30T08:17:23.216Z,20.77
2019-03-30T08:22:24.313Z,20.13
2019-03-30T08:27:25.413Z,19.67
2019-03-30T08:32:26.508Z,23.90
2019-03-30T08:37:27.607Z,20.90
2019-03-30T08:42:28.733Z,23.10
2019-03-30T08:47:29.840Z,17.63
2019-03-30T08:52:31.040Z,22.23
2019-03-30T08:57:32.162Z,21.40
2019-03-30T09:02:33.382Z,26.20
2019-03-30T09:07:34.467Z,18.80
2019-03-30T09:12:35.887Z,24.10
2019-03-30T09:17:37.479Z,19.60
2019-03-30T09:22:39.017Z,21.27
2019-03-30T09:27:40.281Z,19.87
2019-03-30T09:32:44.831Z,18.93
2019-03-30T09:37:44.432Z,20.27
2019-03-30T09:42:45.527Z,19.80
2019-03-30T09:47:46.645Z,22.43
2019-03-30T09:52:47.763Z,19.80
2019-03-30T09:57:48.891Z,22.17
2019-03-30T10:02:50.006Z,21.17
2019-03-30T10:07:51.140Z,19.47
2019-03-30T10:12:52.234Z,21.87
2019-03-30T10:17:53.392Z,20.63
2019-03-30T10:22:54.588Z,20.00
2019-03-30T10:27:55.803Z,19.47
2019-03-30T10:32:57.943Z,18.30
2019-03-30T10:38:00.698Z,19.57
2019-03-30T10:43:03.377Z,16.67
2019-03-30T10:48:04.550Z,17.53
2019-03-30T10:53:06.744Z,20.63
2019-03-30T10:58:09.501Z,21.70
2019-03-30T11:03:12.566Z,14.83
2019-03-30T11:08:13.773Z,15.40
2019-03-30T11:13:15.012Z,14.27
2019-03-30T11:18:16.981Z,11.10
2019-03-30T11:23:18.152Z,10.70
2019-03-30T11:28:20.279Z,10.60
2019-03-30T11:33:23.135Z,9.73
2019-03-30T11:38:24.252Z,9.47
2019-03-30T11:43:26.735Z,9.63
2019-03-30T11:48:27.865Z,10.80
2019-03-30T11:53:30.816Z,7.73
2019-03-30T11:58:32.870Z,7.47
2019-03-30T12:03:35.722Z,6.57
2019-03-30T12:08:37.453Z,7.43
2019-03-30T12:13:40.287Z,8.27
2019-03-30T12:18:43.333Z,8.37
2019-03-30T12:23:44.525Z,8.37
2019-03-30T12:28:45.735Z,8.73
2019-03-30T12:33:48.572Z,8.70
2019-03-30T12:38:49.683Z,8.85
2019-03-30T12:43:50.894Z,11.15
2019-03-30T12:48:53.638Z,7.12
2019-03-30T12:53:56.535Z,8.03
2019-03-30T12:58:58.387Z,8.45
2019-03-30T13:04:01.632Z,8.20
2019-03-30T13:09:04.716Z,6.95
2019-03-30T13:14:07.335Z,8.10
2019-03-30T13:19:08.479Z,7.97
2019-03-30T13:24:09.659Z,8.88
2019-03-30T13:29:12.271Z,9.68
2019-03-30T13:34:15.079Z,7.70
2019-03-30T13:39:17.371Z,8.55
2019-03-30T13:44:18.470Z,8.28
2019-03-30T13:49:21.311Z,7.90
2019-03-30T13:54:26.906Z,8.05
2019-03-30T13:59:29.805Z,9.83
2019-03-30T14:04:34.463Z,7.92
2019-03-30T14:09:35.680Z,7.67
2019-03-30T14:14:36.773Z,9.20
2019-03-30T14:19:37.876Z,8.45
2019-03-30T14:24:40.641Z,8.75
2019-03-30T14:29:42.540Z,10.20
2019-03-30T14:34:43.763Z,15.15
2019-03-30T14:39:46.641Z,10.55
2019-03-30T14:44:47.791Z,8.20
2019-03-30T14:49:48.899Z,10.00
2019-03-30T14:54:52.934Z,11.53
2019-03-30T14:59:53.012Z,10.28
2019-03-30T15:04:56.276Z,7.15
2019-03-30T15:09:57.907Z,11.73
2019-03-30T15:15:00.616Z,9.30
2019-03-30T15:20:04.746Z,10.25
2019-03-30T15:25:07.477Z,9.55
2019-03-30T15:30:09.211Z,8.50
2019-03-30T15:35:11.781Z,9.83
2019-03-30T15:40:13.297Z,8.73
2019-03-30T15:45:15.706Z,8.83
2019-03-30T15:50:18.842Z,10.05
2019-03-30T15:55:20.450Z,10.60
2019-03-30T16:00:21.768Z,10.00
2019-03-30T16:05:24.588Z,9.73
2019-03-30T16:10:25.751Z,10.03
2019-03-30T16:15:26.855Z,7.60
2019-03-30T16:20:29.518Z,9.40
2019-03-30T16:25:30.765Z,9.43
2019-03-30T16:30:32.625Z,8.50
2019-03-30T16:35:33.728Z,11.13
2019-03-30T16:40:36.316Z,8.57
2019-03-30T16:45:38.658Z,13.13
2019-03-30T16:50:39.780Z,8.00
2019-03-30T16:55:41.004Z,9.43
2019-03-30T17:00:55.650Z,10.90
2019-03-30T17:05:46.977Z,7.97
2019-03-30T17:10:51.343Z,8.27
2019-03-30T17:15:54.318Z,7.90
2019-03-30T17:20:57.269Z,10.43
2019-03-30T17:25:59.799Z,9.73
2019-03-30T17:31:02.301Z,13.63
2019-03-30T17:36:03.414Z,16.47
2019-03-30T17:41:06.628Z,15.33
2019-03-30T17:46:07.944Z,16.30
2019-03-30T17:51:09.615Z,11.33
2019-03-30T17:56:10.726Z,11.87
2019-03-30T18:01:15.886Z,13.70
2019-03-30T18:06:17.185Z,15.43
2019-03-30T18:11:19.979Z,13.70
2019-03-30T18:16:22.652Z,11.10
2019-03-30T18:21:25.726Z,15.00
2019-03-30T18:26:28.647Z,16.07
2019-03-30T18:31:31.082Z,22.07
2019-03-30T18:36:34.546Z,17.40
2019-03-30T18:41:35.731Z,13.90
2019-03-30T18:46:37.829Z,16.03
2019-03-30T18:51:41.034Z,21.83
2019-03-30T18:56:42.380Z,14.37
2019-03-30T19:01:44.954Z,10.63
2019-03-30T19:06:47.262Z,13.20
2019-03-30T19:11:50.213Z,13.10
2019-03-30T19:16:53.132Z,23.50
2019-03-30T19:21:54.414Z,15.13
2019-03-30T19:26:55.765Z,17.50
2019-03-30T19:31:57.242Z,21.80
2019-03-30T19:37:00.689Z,18.60
2019-03-30T19:42:03.598Z,16.87
2019-03-30T19:47:04.891Z,24.87
2019-03-30T19:52:06.102Z,22.10
2019-03-30T19:57:07.248Z,17.33
2019-03-30T20:02:09.683Z,20.50
2019-03-30T20:07:11.233Z,19.10
2019-03-30T20:12:15.127Z,20.13
2019-03-30T20:17:16.716Z,21.20
2019-03-30T20:22:21.059Z,18.27
2019-03-30T20:27:23.804Z,18.47
2019-03-30T20:32:27.004Z,20.27
2019-03-30T20:37:28.553Z,20.33
2019-03-30T20:42:32.195Z,17.07
2019-03-30T20:47:33.858Z,19.57
2019-03-30T20:52:36.929Z,20.50
2019-03-30T20:57:40.046Z,22.80
2019-03-30T21:02:41.324Z,20.67
2019-03-30T21:07:42.468Z,20.57
2019-03-30T21:12:47.085Z,17.50
2019-03-30T21:17:48.252Z,20.00
2019-03-30T21:22:49.377Z,20.67
2019-03-30T21:27:51.670Z,16.70
2019-03-30T21:32:53.422Z,19.47
2019-03-30T21:37:58.432Z,16.23
2019-03-30T21:42:59.562Z,15.13
2019-03-30T21:48:02.616Z,15.03
2019-03-30T21:53:04.416Z,21.23
2019-03-30T21:58:05.618Z,18.47
2019-03-30T22:03:07.279Z,16.57
2019-03-30T22:08:08.388Z,19.60
2019-03-30T22:13:10.755Z,17.37
2019-03-30T22:18:13.424Z,17.93
2019-03-30T22:23:15.706Z,16.60
2019-03-30T22:28:18.871Z,17.43
2019-03-30T22:33:21.304Z,18.33
2019-03-30T22:38:24.574Z,17.20
2019-03-30T22:43:26.788Z,19.87
2019-03-30T22:48:28.620Z,17.73
2019-03-30T22:53:29.755Z,20.90
2019-03-30T22:58:32.878Z,20.27
2019-03-30T23:03:34.968Z,19.83
2019-03-30T23:08:36.050Z,21.60
2019-03-30T23:13:38.334Z,23.40
2019-03-30T23:18:39.590Z,15.57
2019-03-30T23:23:40.705Z,17.40
2019-03-30T23:28:43.756Z,16.50
2019-03-30T23:33:45.054Z,16.27
2019-03-30T23:38:49.092Z,18.27
2019-03-30T23:43:52.158Z,16.87
2019-03-30T23:48:55.166Z,20.83
2019-03-30T23:53:56.347Z,19.00
2019-03-30T23:58:59.417Z,16.63
